createdAt,value
2023-04-27T00:00:07.958Z,101558.19
2023-04-27T00:02:36.031Z,101558.38
2023-04-27T00:05:04.181Z,101561.13
2023-04-27T00:07:32.213Z,101568.38
2023-04-27T00:10:00.057Z,101569.31
2023-04-27T00:12:27.927Z,101578.19
2023-04-27T00:14:57.254Z,101582.56
2023-04-27T00:17:25.235Z,101577.94
2023-04-27T00:19:53.480Z,101587.44
2023-04-27T00:22:21.381Z,101591.66
2023-04-27T00:24:49.296Z,101592.41
2023-04-27T00:27:17.150Z,101592.22
2023-04-27T00:29:45.176Z,101600.00
2023-04-27T00:32:14.491Z,101591.88
2023-04-27T00:34:42.449Z,101595.28
2023-04-27T00:37:10.327Z,101591.63
2023-04-27T00:39:38.222Z,101599.56
2023-04-27T00:42:06.459Z,101599.44
2023-04-27T00:44:34.386Z,101592.31
2023-04-27T00:47:02.307Z,101584.13
2023-04-27T00:49:31.590Z,101577.03
2023-04-27T00:52:00.190Z,101571.59
2023-04-27T00:54:28.100Z,101568.91
2023-04-27T00:56:56.354Z,101552.00
2023-04-27T00:59:24.203Z,101540.44
2023-04-27T01:01:52.159Z,101537.75
2023-04-27T01:04:20.424Z,101539.38
2023-04-27T01:06:49.755Z,101529.59
2023-04-27T01:09:20.043Z,101533.94
2023-04-27T01:11:47.994Z,101525.03
2023-04-27T01:14:17.260Z,101522.53
2023-04-27T01:16:46.428Z,101517.13
2023-04-27T01:19:14.615Z,101514.53
2023-04-27T01:21:42.706Z,101511.69
2023-04-27T01:24:12.157Z,101510.81
2023-04-27T01:26:40.004Z,101516.91
2023-04-27T01:29:07.905Z,101512.38
2023-04-27T01:31:35.885Z,101518.53
2023-04-27T01:34:03.797Z,101517.41
2023-04-27T01:36:32.380Z,101513.66
2023-04-27T01:39:00.274Z,101506.53
2023-04-27T01:41:29.558Z,101507.38
2023-04-27T01:43:57.687Z,101492.34
2023-04-27T01:46:25.723Z,101492.31
2023-04-27T01:48:53.623Z,101491.44
2023-04-27T01:51:21.672Z,101485.09
2023-04-27T01:53:49.591Z,101478.00
2023-04-27T01:56:17.565Z,101471.75
2023-04-27T01:58:46.750Z,101474.41
2023-04-27T02:01:14.700Z,101484.13
2023-04-27T02:03:42.974Z,101467.19
2023-04-27T02:06:11.188Z,101462.72
2023-04-27T02:08:39.089Z,101461.78
2023-04-27T02:11:06.978Z,101459.97
2023-04-27T02:13:34.840Z,101451.03
2023-04-27T02:16:05.244Z,101454.56
2023-04-27T02:18:33.769Z,101456.38
2023-04-27T02:21:01.826Z,101456.38
2023-04-27T02:23:29.730Z,101455.44
2023-04-27T02:25:57.652Z,101442.88
2023-04-27T02:28:25.618Z,101449.00
2023-04-27T02:30:54.112Z,101448.88
2023-04-27T02:33:23.541Z,101442.63
2023-04-27T02:35:51.414Z,101432.00
2023-04-27T02:38:19.537Z,101448.81
2023-04-27T02:40:47.524Z,101437.97
2023-04-27T02:43:15.567Z,101431.81
2023-04-27T02:45:43.450Z,101442.50
2023-04-27T02:48:11.447Z,101430.03
2023-04-27T02:50:43.111Z,101438.13
2023-04-27T02:53:11.054Z,101432.88
2023-04-27T02:55:39.011Z,101426.66
2023-04-27T02:58:07.147Z,101418.53
2023-04-27T03:00:35.253Z,101422.97
2023-04-27T03:03:03.277Z,101410.56
2023-04-27T03:05:31.958Z,101415.03
2023-04-27T03:08:01.519Z,101417.72
2023-04-27T03:10:29.451Z,101414.97
2023-04-27T03:12:57.319Z,101415.78
2023-04-27T03:15:25.177Z,101401.63
2023-04-27T03:17:53.136Z,101401.56
2023-04-27T03:20:21.132Z,101409.63
2023-04-27T03:22:48.975Z,101402.31
2023-04-27T03:25:18.238Z,101397.84
2023-04-27T03:27:46.138Z,101384.53
2023-04-27T03:30:14.781Z,101384.63
2023-04-27T03:32:43.543Z,101386.38
2023-04-27T03:35:12.258Z,101381.25
2023-04-27T03:37:40.172Z,101382.19
2023-04-27T03:40:09.378Z,101384.91
2023-04-27T03:42:38.688Z,101385.00
2023-04-27T03:45:08.099Z,101382.31
2023-04-27T03:47:36.019Z,101392.94
2023-04-27T03:50:04.295Z,101391.22
2023-04-27T03:52:32.171Z,101396.41
2023-04-27T03:55:00.065Z,101395.41
2023-04-27T03:57:27.948Z,101394.50
2023-04-27T03:59:58.829Z,101393.56
2023-04-27T04:02:26.972Z,101388.16
2023-04-27T04:04:55.203Z,101369.56
2023-04-27T04:07:23.153Z,101370.47
2023-04-27T04:09:51.033Z,101367.91
2023-04-27T04:12:18.886Z,101373.06
2023-04-27T04:14:48.922Z,101373.13
2023-04-27T04:17:18.266Z,101365.78
2023-04-27T04:19:46.175Z,101366.59
2023-04-27T04:22:14.041Z,101371.06
2023-04-27T04:24:41.895Z,101364.69
2023-04-27T04:27:09.805Z,101362.91
2023-04-27T04:29:38.902Z,101357.56
2023-04-27T04:32:09.438Z,101368.28
2023-04-27T04:34:38.694Z,101365.50
2023-04-27T04:37:06.560Z,101367.22
2023-04-27T04:39:34.462Z,101368.09
2023-04-27T04:42:04.071Z,101376.09
2023-04-27T04:44:31.986Z,101368.09
2023-04-27T04:46:59.918Z,101360.06
2023-04-27T04:49:27.907Z,101345.72
2023-04-27T04:51:57.223Z,101337.69
2023-04-27T04:54:25.095Z,101328.81
2023-04-27T04:56:53.013Z,101331.44
2023-04-27T04:59:21.024Z,101325.13
2023-04-27T05:01:48.900Z,101326.72
2023-04-27T05:04:18.797Z,101337.41
2023-04-27T05:06:47.293Z,101337.41
2023-04-27T05:09:16.503Z,101340.06
2023-04-27T05:11:44.383Z,101340.16
2023-04-27T05:14:12.398Z,101341.16
2023-04-27T05:16:40.567Z,101343.69
2023-04-27T05:19:08.772Z,101332.13
2023-04-27T05:21:36.672Z,101338.25
2023-04-27T05:24:05.141Z,101334.66
2023-04-27T05:26:34.395Z,101331.91
2023-04-27T05:29:02.294Z,101331.78
2023-04-27T05:31:30.231Z,101329.03
2023-04-27T05:33:58.197Z,101327.28
2023-04-27T05:36:27.236Z,101323.69
2023-04-27T05:38:55.183Z,101307.44
2023-04-27T05:41:23.984Z,101308.31
2023-04-27T05:43:53.615Z,101310.09
2023-04-27T05:46:22.096Z,101324.25
2023-04-27T05:48:50.080Z,101314.50
2023-04-27T05:51:17.984Z,101317.16
2023-04-27T05:53:46.577Z,101310.75
2023-04-27T05:56:14.460Z,101309.00
2023-04-27T05:58:45.178Z,101308.31
2023-04-27T06:01:14.460Z,101310.97
2023-04-27T06:03:42.583Z,101314.50
2023-04-27T06:06:10.724Z,101319.03
2023-04-27T06:08:39.533Z,101314.50
2023-04-27T06:11:07.599Z,101311.81
2023-04-27T06:13:35.614Z,101316.09
2023-04-27T06:16:03.677Z,101308.00
2023-04-27T06:18:33.080Z,101306.53
2023-04-27T06:21:02.310Z,101300.97
2023-04-27T06:23:30.487Z,101301.66
2023-04-27T06:25:58.903Z,101299.94
2023-04-27T06:28:27.253Z,101294.53
2023-04-27T06:30:55.199Z,101290.84
2023-04-27T06:33:23.072Z,101289.97
2023-04-27T06:35:52.368Z,101289.03
2023-04-27T06:38:20.260Z,101288.94
2023-04-27T06:40:51.997Z,101291.63
2023-04-27T06:43:20.170Z,101298.75
2023-04-27T06:45:48.349Z,101298.69
2023-04-27T06:48:17.051Z,101301.34
2023-04-27T06:50:45.000Z,101310.41
2023-04-27T06:53:14.297Z,101309.59
2023-04-27T06:55:44.542Z,101323.78
2023-04-27T06:58:14.143Z,101319.00
2023-04-27T07:00:42.142Z,101308.88
2023-04-27T07:03:10.216Z,101308.63
2023-04-27T07:05:38.251Z,101312.88
2023-04-27T07:08:08.509Z,101302.72
2023-04-27T07:10:38.361Z,101306.84
2023-04-27T07:13:08.867Z,101303.72
2023-04-27T07:15:37.272Z,101297.97
2023-04-27T07:18:05.433Z,101300.31
2023-04-27T07:20:33.502Z,101298.13
2023-04-27T07:23:01.496Z,101290.63
2023-04-27T07:25:29.410Z,101285.91
2023-04-27T07:27:59.806Z,101277.69
2023-04-27T07:30:31.048Z,101275.63
2023-04-27T07:33:00.914Z,101270.81
2023-04-27T07:35:29.030Z,101263.41
2023-04-27T07:37:56.979Z,101261.41
2023-04-27T07:40:25.076Z,101253.13
2023-04-27T07:42:53.400Z,101252.19
2023-04-27T07:45:23.164Z,101257.06
2023-04-27T07:47:52.145Z,101235.28
2023-04-27T07:50:24.443Z,101234.75
2023-04-27T07:52:52.420Z,101247.81
2023-04-27T07:55:21.550Z,101237.84
2023-04-27T07:57:49.431Z,101242.34
2023-04-27T08:00:17.864Z,101252.38
2023-04-27T08:02:47.420Z,101252.53
2023-04-27T08:05:15.818Z,101251.97
2023-04-27T08:07:44.918Z,101259.38
2023-04-27T08:10:13.353Z,101259.53
2023-04-27T08:12:41.268Z,101260.66
2023-04-27T08:15:10.640Z,101243.03
2023-04-27T08:17:40.920Z,101243.97
2023-04-27T08:20:11.657Z,101235.94
2023-04-27T08:22:39.771Z,101229.56
2023-04-27T08:25:08.647Z,101236.72
2023-04-27T08:27:38.249Z,101231.28
2023-04-27T08:30:07.222Z,101234.84
2023-04-27T08:32:35.180Z,101243.56
2023-04-27T08:35:03.734Z,101230.06
2023-04-27T08:37:33.049Z,101232.75
2023-04-27T08:40:00.923Z,101225.59
2023-04-27T08:42:30.705Z,101227.41
2023-04-27T08:44:58.580Z,101232.69
2023-04-27T08:47:39.049Z,101232.75
2023-04-27T08:50:11.257Z,101239.22
2023-04-27T08:52:40.593Z,101247.19
2023-04-27T08:55:09.535Z,101248.03
2023-04-27T08:57:38.010Z,101247.13
2023-04-27T09:00:13.253Z,101248.16
2023-04-27T09:02:47.956Z,101242.94
2023-04-27T09:05:19.297Z,101250.09
2023-04-27T09:08:05.716Z,101261.16
2023-04-27T09:10:47.292Z,101265.75
2023-04-27T09:13:15.274Z,101263.31
2023-04-27T09:15:46.320Z,101251.66
2023-04-27T09:18:19.472Z,101254.25
2023-04-27T09:20:47.575Z,101253.38
2023-04-27T09:23:28.660Z,101246.31
2023-04-27T09:25:56.786Z,101246.22
2023-04-27T09:28:25.776Z,101241.75
2023-04-27T09:30:54.973Z,101241.78
2023-04-27T09:33:26.162Z,101223.41
2023-04-27T09:35:54.057Z,101228.75
2023-04-27T09:38:22.778Z,101216.34
2023-04-27T09:40:52.996Z,101207.34
2023-04-27T09:43:21.921Z,101202.84
2023-04-27T09:45:50.042Z,101206.41
2023-04-27T09:48:18.364Z,101205.53
2023-04-27T09:50:46.842Z,101213.56
2023-04-27T09:53:15.706Z,101210.78
2023-04-27T09:55:45.720Z,101206.31
2023-04-27T09:58:41.943Z,101206.16
2023-04-27T10:01:12.482Z,101210.53
2023-04-27T10:03:45.593Z,101207.53
2023-04-27T10:06:45.932Z,101205.38
2023-04-27T10:09:14.963Z,101209.63
2023-04-27T10:11:44.597Z,101200.53
2023-04-27T10:14:18.492Z,101194.06
2023-04-27T10:16:47.366Z,101186.91
2023-04-27T10:19:15.639Z,101179.03
2023-04-27T10:21:53.932Z,101180.47
2023-04-27T10:24:22.010Z,101167.88
2023-04-27T10:26:49.948Z,101162.53
2023-04-27T10:29:20.543Z,101156.28
2023-04-27T10:31:48.957Z,101136.00
2023-04-27T10:34:19.150Z,101129.78
2023-04-27T10:36:49.178Z,101125.34
2023-04-27T10:39:18.503Z,101126.06
2023-04-27T10:41:53.332Z,101119.41
2023-04-27T10:44:28.772Z,101115.38
2023-04-27T10:46:57.458Z,101095.69
2023-04-27T10:49:25.346Z,101093.72
2023-04-27T10:51:53.250Z,101092.66
2023-04-27T10:54:21.142Z,101082.81
2023-04-27T10:56:49.017Z,101075.72
2023-04-27T10:59:17.015Z,101074.78
2023-04-27T11:01:49.481Z,101067.63
2023-04-27T11:04:18.560Z,101059.31
2023-04-27T11:06:47.130Z,101043.72
2023-04-27T11:09:16.238Z,101032.91
2023-04-27T11:11:47.998Z,101034.19
2023-04-27T11:14:21.078Z,101021.34
2023-04-27T11:16:50.695Z,101015.75
2023-04-27T11:19:18.556Z,101004.78
2023-04-27T11:21:46.582Z,101003.91
2023-04-27T11:24:15.616Z,101003.22
2023-04-27T11:26:43.615Z,101006.19
2023-04-27T11:29:14.019Z,100988.66
2023-04-27T11:31:43.736Z,100972.56
2023-04-27T11:34:16.509Z,100976.31
2023-04-27T11:36:44.396Z,100975.16
2023-04-27T11:39:19.075Z,100967.56
2023-04-27T11:41:47.101Z,100963.66
2023-04-27T11:44:14.997Z,100964.31
2023-04-27T11:46:45.932Z,100981.25
2023-04-27T11:49:15.574Z,100974.97
2023-04-27T11:51:45.087Z,100957.16
2023-04-27T11:54:13.235Z,100970.06
2023-04-27T11:56:42.101Z,100963.16
2023-04-27T11:59:19.610Z,100960.78
2023-04-27T12:01:47.810Z,100947.50
2023-04-27T12:04:17.913Z,100953.75
2023-04-27T12:06:46.003Z,100946.56
2023-04-27T12:09:13.904Z,100935.53
2023-04-27T12:11:41.830Z,100925.31
2023-04-27T12:14:09.719Z,100924.25
2023-04-27T12:16:37.866Z,100924.63
2023-04-27T12:19:06.592Z,100929.03
2023-04-27T12:21:35.891Z,100931.91
2023-04-27T12:24:03.766Z,100927.41
2023-04-27T12:26:31.639Z,100921.53
2023-04-27T12:28:59.535Z,100923.03
2023-04-27T12:31:27.944Z,100918.22
2023-04-27T12:33:56.170Z,100901.56
2023-04-27T12:36:24.074Z,100920.16
2023-04-27T12:38:53.484Z,100932.97
2023-04-27T12:41:21.396Z,100922.31
2023-04-27T12:43:49.415Z,100917.69
2023-04-27T12:46:18.345Z,100929.19
2023-04-27T12:48:46.407Z,100932.31
2023-04-27T12:51:14.645Z,100926.22
2023-04-27T12:53:42.643Z,100925.91
2023-04-27T12:56:12.592Z,100918.28
2023-04-27T12:58:41.675Z,100932.38
2023-04-27T13:01:14.913Z,100914.13
2023-04-27T13:03:43.149Z,100915.94
2023-04-27T13:06:11.272Z,100896.91
2023-04-27T13:08:39.173Z,100902.91
2023-04-27T13:11:07.153Z,100893.97
2023-04-27T13:13:36.441Z,100898.16
2023-04-27T13:16:04.643Z,100886.53
2023-04-27T13:18:34.911Z,100879.66
2023-04-27T13:21:03.965Z,100880.84
2023-04-27T13:23:32.037Z,100877.16
2023-04-27T13:26:00.147Z,100881.72
2023-04-27T13:28:28.030Z,100882.88
2023-04-27T13:30:59.586Z,100886.03
2023-04-27T13:33:28.168Z,100885.94
2023-04-27T13:35:56.086Z,100878.19
2023-04-27T13:38:24.097Z,100860.53
2023-04-27T13:40:52.050Z,100864.06
2023-04-27T13:43:19.937Z,100870.84
2023-04-27T13:45:49.583Z,100872.34
2023-04-27T13:48:19.360Z,100870.63
2023-04-27T13:50:47.426Z,100879.31
2023-04-27T13:53:19.376Z,100877.91
2023-04-27T13:55:47.562Z,100887.50
2023-04-27T13:58:15.715Z,100887.41
2023-04-27T14:00:43.609Z,100876.63
2023-04-27T14:03:11.990Z,100858.66
2023-04-27T14:05:41.381Z,100866.50
2023-04-27T14:08:09.322Z,100873.94
2023-04-27T14:10:37.613Z,100872.34
2023-04-27T14:13:05.536Z,100872.44
2023-04-27T14:15:37.111Z,100869.63
2023-04-27T14:18:06.414Z,100870.63
2023-04-27T14:20:34.523Z,100866.13
2023-04-27T14:23:04.400Z,100869.88
2023-04-27T14:25:34.595Z,100851.53
2023-04-27T14:28:03.007Z,100871.28
2023-04-27T14:30:30.874Z,100857.97
2023-04-27T14:32:58.923Z,100857.84
2023-04-27T14:35:26.916Z,100850.53
2023-04-27T14:37:57.064Z,100848.91
2023-04-27T14:40:26.496Z,100851.28
2023-04-27T14:42:54.358Z,100848.09
2023-04-27T14:45:24.151Z,100846.59
2023-04-27T14:47:52.325Z,100834.44
2023-04-27T14:50:20.483Z,100830.59
2023-04-27T14:52:48.632Z,100834.47
2023-04-27T14:55:18.116Z,100826.28
2023-04-27T14:57:48.039Z,100821.66
2023-04-27T15:00:16.872Z,100829.63
2023-04-27T15:02:44.822Z,100826.38
2023-04-27T15:05:12.866Z,100811.22
2023-04-27T15:07:41.306Z,100818.09
2023-04-27T15:10:10.468Z,100813.50
2023-04-27T15:12:38.374Z,100814.75
2023-04-27T15:15:11.189Z,100801.22
2023-04-27T15:17:39.082Z,100812.94
2023-04-27T15:20:10.964Z,100801.31
2023-04-27T15:22:41.208Z,100794.63
2023-04-27T15:25:09.951Z,100803.09
2023-04-27T15:27:37.961Z,100798.22
2023-04-27T15:30:09.037Z,100799.28
2023-04-27T15:32:37.233Z,100793.16
2023-04-27T15:35:06.153Z,100792.31
2023-04-27T15:37:36.081Z,100791.34
2023-04-27T15:40:04.024Z,100783.50
2023-04-27T15:42:32.027Z,100783.38
2023-04-27T15:45:00.588Z,100782.31
2023-04-27T15:47:32.642Z,100777.72
2023-04-27T15:50:00.806Z,100779.63
2023-04-27T15:52:28.670Z,100776.50
2023-04-27T15:54:57.228Z,100771.75
2023-04-27T15:57:25.134Z,100786.84
2023-04-27T15:59:53.032Z,100787.97
2023-04-27T16:02:21.102Z,100781.47
2023-04-27T16:04:50.875Z,100788.22
2023-04-27T16:07:18.932Z,100783.22
2023-04-27T16:09:46.853Z,100770.88
2023-04-27T16:12:14.793Z,100768.50
2023-04-27T16:14:42.731Z,100766.63
2023-04-27T16:17:10.755Z,100767.06
2023-04-27T16:19:38.948Z,100759.50
2023-04-27T16:22:08.193Z,100757.03
2023-04-27T16:24:36.391Z,100751.94
2023-04-27T16:27:04.678Z,100744.59
2023-04-27T16:29:32.594Z,100744.28
2023-04-27T16:32:00.732Z,100738.50
2023-04-27T16:34:28.933Z,100730.16
2023-04-27T16:36:56.826Z,100731.66
2023-04-27T16:39:26.172Z,100733.59
2023-04-27T16:41:54.024Z,100732.94
2023-04-27T16:44:22.238Z,100727.13
2023-04-27T16:46:52.025Z,100719.47
2023-04-27T16:49:19.956Z,100720.88
2023-04-27T16:51:47.900Z,100723.13
2023-04-27T16:54:16.491Z,100712.47
2023-04-27T16:56:46.567Z,100707.03
2023-04-27T16:59:14.652Z,100703.38
2023-04-27T17:01:43.016Z,100697.06
2023-04-27T17:04:11.607Z,100694.91
2023-04-27T17:06:40.969Z,100700.94
2023-04-27T17:09:10.290Z,100693.66
2023-04-27T17:11:38.267Z,100691.91
2023-04-27T17:14:07.517Z,100695.47
2023-04-27T17:16:35.668Z,100693.19
2023-04-27T17:19:03.892Z,100699.44
2023-04-27T17:21:32.510Z,100688.78
2023-04-27T17:24:00.577Z,100685.34
2023-04-27T17:26:28.500Z,100686.34
2023-04-27T17:28:59.987Z,100681.16
2023-04-27T17:31:29.581Z,100681.81
2023-04-27T17:33:57.461Z,100680.84
2023-04-27T17:36:25.481Z,100683.53
2023-04-27T17:38:54.039Z,100682.03
2023-04-27T17:41:22.291Z,100677.72
2023-04-27T17:43:50.329Z,100681.38
2023-04-27T17:46:18.467Z,100677.53
2023-04-27T17:48:48.002Z,100666.44
2023-04-27T17:51:16.404Z,100669.81
2023-04-27T17:53:50.431Z,100679.25
2023-04-27T17:56:18.306Z,100676.25
2023-04-27T17:58:46.214Z,100667.13
2023-04-27T18:01:14.159Z,100664.47
2023-04-27T18:03:43.149Z,100662.94
2023-04-27T18:06:14.961Z,100668.72
2023-04-27T18:08:42.962Z,100668.19
2023-04-27T18:11:10.917Z,100662.41
2023-04-27T18:13:38.780Z,100672.19
2023-04-27T18:16:07.031Z,100667.66
2023-04-27T18:18:34.922Z,100670.25
2023-04-27T18:21:03.092Z,100668.63
2023-04-27T18:23:32.368Z,100666.81
2023-04-27T18:26:00.951Z,100667.75
2023-04-27T18:28:28.843Z,100658.97
2023-04-27T18:30:56.703Z,100663.47
2023-04-27T18:33:24.626Z,100670.13
2023-04-27T18:35:52.890Z,100661.50
2023-04-27T18:38:20.878Z,100669.66
2023-04-27T18:40:50.136Z,100664.31
2023-04-27T18:43:18.161Z,100663.81
2023-04-27T18:45:46.777Z,100664.81
2023-04-27T18:48:14.894Z,100659.75
2023-04-27T18:50:43.105Z,100670.66
2023-04-27T18:53:10.994Z,100663.69
2023-04-27T18:55:39.525Z,100665.53
2023-04-27T18:58:19.470Z,100667.34
2023-04-27T19:00:47.337Z,100661.22
2023-04-27T19:03:15.352Z,100659.31
2023-04-27T19:05:44.137Z,100659.31
2023-04-27T19:08:12.010Z,100656.63
2023-04-27T19:10:41.190Z,100656.50
2023-04-27T19:13:10.631Z,100654.81
2023-04-27T19:15:38.667Z,100659.41
2023-04-27T19:18:11.497Z,100653.81
2023-04-27T19:20:39.900Z,100661.13
2023-04-27T19:23:09.392Z,100657.78
2023-04-27T19:25:37.528Z,100655.00
2023-04-27T19:28:06.107Z,100659.50
2023-04-27T19:30:35.428Z,100663.16
2023-04-27T19:33:04.263Z,100662.19
2023-04-27T19:35:32.221Z,100662.84
2023-04-27T19:38:00.207Z,100654.69
2023-04-27T19:40:28.104Z,100674.41
2023-04-27T19:42:55.997Z,100670.78
2023-04-27T19:45:23.898Z,100667.91
2023-04-27T19:47:54.143Z,100674.22
2023-04-27T19:50:22.170Z,100676.88
2023-04-27T19:52:50.336Z,100673.47
2023-04-27T19:55:18.622Z,100670.88
2023-04-27T19:57:46.492Z,100685.34
2023-04-27T20:00:15.019Z,100686.22
2023-04-27T20:02:43.334Z,100685.91
2023-04-27T20:05:13.648Z,100691.91
2023-04-27T20:07:41.752Z,100695.16
2023-04-27T20:10:09.769Z,100695.81
2023-04-27T20:12:54.639Z,100693.69
2023-04-27T20:15:24.573Z,100705.16
2023-04-27T20:17:52.716Z,100703.34
2023-04-27T20:20:22.108Z,100706.09
2023-04-27T20:22:50.040Z,100700.75
2023-04-27T20:25:19.588Z,100705.28
2023-04-27T20:27:47.628Z,100708.78
2023-04-27T20:30:16.046Z,100716.06
2023-04-27T20:32:44.227Z,100706.34
2023-04-27T20:35:12.337Z,100709.09
2023-04-27T20:37:43.499Z,100716.50
2023-04-27T20:40:14.559Z,100709.41
2023-04-27T20:42:42.662Z,100713.25
2023-04-27T20:45:11.657Z,100709.81
2023-04-27T20:47:39.550Z,100707.34
2023-04-27T20:50:09.092Z,100714.53
2023-04-27T20:52:36.996Z,100715.59
2023-04-27T20:55:06.757Z,100712.22
2023-04-27T20:57:34.700Z,100710.63
2023-04-27T21:00:02.838Z,100717.81
2023-04-27T21:02:30.788Z,100724.22
2023-04-27T21:04:58.783Z,100722.50
2023-04-27T21:07:26.706Z,100734.06
2023-04-27T21:09:54.631Z,100727.78
2023-04-27T21:12:23.909Z,100733.03
2023-04-27T21:14:51.857Z,100733.88
2023-04-27T21:17:19.741Z,100737.44
2023-04-27T21:19:47.623Z,100734.75
2023-04-27T21:22:15.680Z,100730.16
2023-04-27T21:24:43.565Z,100731.97
2023-04-27T21:27:12.806Z,100727.38
2023-04-27T21:29:42.045Z,100729.16
2023-04-27T21:32:09.922Z,100730.16
2023-04-27T21:34:37.776Z,100733.66
2023-04-27T21:37:05.692Z,100733.66
2023-04-27T21:39:33.614Z,100730.34
2023-04-27T21:42:01.478Z,100731.31
2023-04-27T21:44:29.361Z,100740.31
2023-04-27T21:46:58.687Z,100741.16
2023-04-27T21:49:26.529Z,100743.84
2023-04-27T21:51:54.382Z,100738.38
2023-04-27T21:54:22.290Z,100740.31
2023-04-27T21:56:50.141Z,100746.53
2023-04-27T21:59:17.986Z,100747.59
2023-04-27T22:01:46.252Z,100751.31
2023-04-27T22:04:16.912Z,100749.56
2023-04-27T22:06:45.062Z,100739.09
2023-04-27T22:09:13.286Z,100743.69
2023-04-27T22:11:41.476Z,100742.78
2023-04-27T22:14:09.393Z,100742.78
2023-04-27T22:16:37.378Z,100741.91
2023-04-27T22:19:05.317Z,100744.69
2023-04-27T22:21:34.573Z,100746.63
2023-04-27T22:24:02.494Z,100749.38
2023-04-27T22:26:30.406Z,100747.78
2023-04-27T22:28:58.272Z,100749.59
2023-04-27T22:31:26.312Z,100752.28
2023-04-27T22:33:54.237Z,100753.13
2023-04-27T22:36:22.083Z,100755.81
2023-04-27T22:38:52.462Z,100744.25
2023-04-27T22:41:20.463Z,100753.22
2023-04-27T22:43:48.339Z,100751.41
2023-04-27T22:46:16.363Z,100756.75
2023-04-27T22:48:45.069Z,100757.81
2023-04-27T22:51:13.106Z,100764.03
2023-04-27T22:53:41.178Z,100773.22
2023-04-27T22:56:10.514Z,100770.72
2023-04-27T22:58:38.399Z,100767.19
2023-04-27T23:01:06.430Z,100768.16
2023-04-27T23:03:34.450Z,100771.78
2023-04-27T23:06:02.383Z,100771.91
2023-04-27T23:08:30.273Z,100778.19
2023-04-27T23:10:58.172Z,100778.31
2023-04-27T23:13:27.750Z,100777.34
2023-04-27T23:15:55.893Z,100779.06
2023-04-27T23:18:23.753Z,100772.94
2023-04-27T23:20:54.108Z,100779.16
2023-04-27T23:23:21.957Z,100763.03
2023-04-27T23:25:49.823Z,100780.22
2023-04-27T23:28:17.791Z,100782.13
2023-04-27T23:30:52.680Z,100784.69
2023-04-27T23:33:20.588Z,100780.41
2023-04-27T23:35:48.466Z,100785.69
2023-04-27T23:38:16.498Z,100787.59
2023-04-27T23:40:44.389Z,100794.84
2023-04-27T23:43:12.282Z,100786.91
2023-04-27T23:45:40.176Z,100783.47
2023-04-27T23:48:09.458Z,100786.31
2023-04-27T23:50:37.379Z,100789.28
2023-04-27T23:53:05.234Z,100786.81
2023-04-27T23:55:35.029Z,100792.44
2023-04-27T23:58:02.897Z,100787.97
